Stations météo

réclame
Mon MeteoGroup
St-Raphael, France (7680): Température de l'air & dewpoint: 22.02.2020 18:00:00 - 28.02.2020 18:00:00 (CET)St-Raphael, France (7680): Vitesse du vent & gusts: 22.02.2020 18:00:00 - 28.02.2020 18:00:00 (CET)St-Raphael, France (7680): Direction du vent: 22.02.2020 18:00:00 - 28.02.2020 18:00:00 (CET)St-Raphael, France (7680): Quantités de précipitations: 22.02.2020 18:00:00 - 28.02.2020 18:00:00 (CET)
Date & Time tt [°C] td [°C] ff [km/h] ff [knt] fx [km/h] fx [knt] dd rr [mm]
28.02.2020 18:00:00 12,5 4,9 8 4 24 13 S 0,0
28.02.2020 17:00:00 14,5 5,3 13 7 28 15 SSE 0,0
28.02.2020 16:00:00 15,5 4,8 11 6 24 13 SSE 0,0
28.02.2020 15:00:00 15,5 1,9 11 6 22 12 SE 0,0
28.02.2020 14:00:00 16,1 1,4 9 5 18 10 SE 0,0
28.02.2020 13:00:00 15,9 1,2 8 4 18 10 SE -
28.02.2020 12:00:00 16,3 0,4 5 3 15 8 SSE 0,0
28.02.2020 11:00:00 14,0 -0,1 8 4 26 14 NW 0,0
28.02.2020 10:00:00 11,8 -3,2 13 7 29 16 NW 0,0
28.02.2020 09:00:00 9,9 -4,1 18 10 39 21 NW 0,0
28.02.2020 08:00:00 8,2 -4,6 16 9 31 17 WNW 0,0
28.02.2020 07:00:00 8,2 -5,0 15 8 34 18 W -
28.02.2020 06:00:00 8,5 -4,4 13 7 54 29 NW 0,0
28.02.2020 05:00:00 9,4 -4,6 24 13 48 26 W 0,0
28.02.2020 04:00:00 9,8 -4,2 26 14 55 30 W 0,0
28.02.2020 03:00:00 10,8 -3,7 28 15 65 35 W 0,0
28.02.2020 02:00:00 10,6 -0,3 28 15 65 35 W 0,0
28.02.2020 01:00:00 10,8 1,6 29 16 74 40 WNW -
28.02.2020 00:00:00 11,0 3,3 39 21 65 35 W 0,0
27.02.2020 23:00:00 11,2 5,5 39 21 67 36 W 0,0
27.02.2020 22:00:00 10,9 6,8 31 17 59 32 WNW 0,0
27.02.2020 21:00:00 10,5 6,8 29 16 52 28 W 0,0
27.02.2020 20:00:00 9,8 6,3 24 13 44 24 W 0,0
27.02.2020 19:00:00 9,2 5,7 24 13 50 27 W -
27.02.2020 18:00:00 8,6 5,7 21 11 37 20 W 0,0
27.02.2020 17:00:00 8,6 5,7 15 8 26 14 W 0,0
27.02.2020 16:00:00 8,5 5,1 13 7 26 14 WNW 0,0
27.02.2020 15:00:00 9,1 4,7 11 6 35 19 WNW 0,0
27.02.2020 14:00:00 10,2 3,5 18 10 41 22 W 0,0
27.02.2020 13:00:00 11,1 1,9 18 10 44 24 W -
27.02.2020 12:00:00 11,3 -1,2 26 14 46 25 W 0,0
27.02.2020 11:00:00 9,7 -4,0 22 12 48 26 W 0,0
27.02.2020 10:00:00 8,8 -4,1 24 13 41 22 W 0,0
27.02.2020 09:00:00 8,5 -4,0 21 11 41 22 W 0,0
27.02.2020 08:00:00 6,1 -4,4 16 9 46 25 WNW 0,0
27.02.2020 07:00:00 6,8 -4,9 28 15 55 30 W -
27.02.2020 06:00:00 7,1 -5,6 24 13 50 27 W 0,0
27.02.2020 05:00:00 6,9 -5,1 26 14 52 28 W 0,0
27.02.2020 04:00:00 6,9 -5,5 24 13 42 23 W 0,0
27.02.2020 03:00:00 7,1 -5,6 18 10 48 26 W 0,0
27.02.2020 02:00:00 7,5 -6,3 18 10 39 21 W 0,0
27.02.2020 01:00:00 7,4 -6,0 22 12 41 22 W -
27.02.2020 00:00:00 7,2 -6,2 15 8 35 19 W 0,0
26.02.2020 23:00:00 7,9 -6,3 18 10 39 21 W 0,0
26.02.2020 22:00:00 7,4 -5,0 18 10 29 16 W 0,0
26.02.2020 21:00:00 7,8 -5,3 15 8 42 23 W 0,0
26.02.2020 20:00:00 8,7 -5,6 22 12 46 25 WNW 0,0
26.02.2020 19:00:00 9,2 -5,5 22 12 61 33 WNW -
26.02.2020 18:00:00 10,4 -6,0 31 17 70 38 WNW 0,0
26.02.2020 17:00:00 11,3 -4,4 31 17 78 42 W 0,0
26.02.2020 16:00:00 11,2 -3,7 34 18 83 45 WNW 0,0
26.02.2020 15:00:00 12,9 -6,7 37 20 81 44 WNW 0,0
26.02.2020 14:00:00 12,1 -5,0 44 24 93 50 WNW 0,0
26.02.2020 13:00:00 13,8 -5,4 37 20 68 37 WNW -
26.02.2020 12:00:00 12,0 -1,2 35 19 83 45 WNW 0,0
26.02.2020 11:00:00 13,5 -0,9 35 19 67 36 W 0,0
26.02.2020 10:00:00 12,6 0,3 28 15 63 34 W 0,0
26.02.2020 09:00:00 11,2 0,9 34 18 65 35 W 0,0
26.02.2020 08:00:00 10,2 1,3 35 19 65 35 W 0,0
26.02.2020 07:00:00 9,8 1,4 34 18 67 36 W -
26.02.2020 06:00:00 10,4 0,7 37 20 70 38 W 0,0
26.02.2020 05:00:00 10,7 0,4 31 17 67 36 W 0,0
26.02.2020 04:00:00 11,3 0,1 35 19 59 32 W 0,0
26.02.2020 03:00:00 11,8 1,7 34 18 65 35 W 0,0
26.02.2020 02:00:00 12,1 4,3 35 19 65 35 W 0,0
26.02.2020 01:00:00 12,3 5,9 34 18 68 37 W -
26.02.2020 00:00:00 12,7 5,8 29 16 52 28 W 0,0
25.02.2020 23:00:00 12,6 5,3 22 12 44 24 W 0,0
25.02.2020 22:00:00 13,1 5,5 28 15 54 29 W 0,0
25.02.2020 21:00:00 13,3 5,4 28 15 50 27 W 0,0
25.02.2020 20:00:00 14,1 4,7 24 13 48 26 W 0,0
25.02.2020 19:00:00 15,3 4,0 26 14 48 26 W -
25.02.2020 18:00:00 16,1 3,2 24 13 52 28 W 0,0
25.02.2020 17:00:00 17,0 2,2 24 13 50 27 W 0,0
25.02.2020 16:00:00 17,3 1,7 28 15 50 27 W 0,0
25.02.2020 15:00:00 18,8 0,8 26 14 48 26 W 0,0
25.02.2020 14:00:00 18,7 0,8 22 12 50 27 W 0,0
25.02.2020 13:00:00 20,3 0,7 24 13 41 22 W -
25.02.2020 12:00:00 14,1 7,6 8 4 15 8 SE 0,0
25.02.2020 11:00:00 13,0 7,2 4 2 11 6 SSE 0,0
25.02.2020 10:00:00 9,5 6,4 8 4 18 10 W 0,0
25.02.2020 09:00:00 7,8 7,2 9 5 18 10 NW 0,0
25.02.2020 08:00:00 8,3 8,0 9 5 16 9 WNW 0,0
25.02.2020 07:00:00 8,6 8,3 5 3 13 7 WNW -
25.02.2020 06:00:00 8,8 8,5 8 4 13 7 WNW 0,0
25.02.2020 05:00:00 8,7 8,1 4 2 11 6 NNW 0,0
25.02.2020 04:00:00 8,1 7,3 5 3 16 9 NW 0,0
25.02.2020 03:00:00 7,5 6,8 5 3 9 5 N 0,0
25.02.2020 02:00:00 7,0 6,3 4 2 9 5 NNW 0,0
25.02.2020 01:00:00 8,0 6,9 4 2 13 7 NNW -
25.02.2020 00:00:00 8,9 7,5 5 3 13 7 WNW 0,0
24.02.2020 23:00:00 9,0 7,8 5 3 11 6 NW 0,0
24.02.2020 22:00:00 9,2 7,8 4 2 8 4 N 0,0
24.02.2020 21:00:00 9,8 8,4 2 1 5 3 NNW 0,0
24.02.2020 20:00:00 11,2 9,9 4 2 8 4 NNW 0,0
24.02.2020 19:00:00 11,6 9,3 0 0 9 5 N -
24.02.2020 18:00:00 13,6 10,8 5 3 16 9 ESE 0,0
24.02.2020 17:00:00 14,5 11,1 8 4 18 10 ESE 0,0
24.02.2020 16:00:00 15,1 11,1 9 5 16 9 SE 0,0
24.02.2020 15:00:00 15,4 11,2 9 5 22 12 SE 0,0
24.02.2020 14:00:00 16,0 11,2 11 6 22 12 S 0,0
24.02.2020 13:00:00 16,1 10,4 9 5 21 11 SE -
24.02.2020 12:00:00 16,0 9,6 9 5 18 10 SSE 0,0
24.02.2020 11:00:00 14,9 7,4 4 2 8 4 WSW 0,0
24.02.2020 10:00:00 10,3 8,1 5 3 11 6 W 0,0
24.02.2020 09:00:00 7,0 5,6 5 3 11 6 NW 0,0
24.02.2020 08:00:00 4,1 3,7 4 2 13 7 NW 0,0
24.02.2020 07:00:00 3,5 3,1 8 4 13 7 NW -
24.02.2020 06:00:00 3,8 3,4 5 3 13 7 WNW 0,0
24.02.2020 05:00:00 4,7 4,4 8 4 13 7 NW 0,0
24.02.2020 04:00:00 4,5 3,9 4 2 13 7 WNW 0,0
24.02.2020 03:00:00 5,0 4,4 5 3 13 7 WNW 0,2
24.02.2020 02:00:00 6,0 5,4 5 3 11 6 NW 0,0
24.02.2020 01:00:00 6,5 5,8 5 3 11 6 NW -
24.02.2020 00:00:00 6,2 5,6 5 3 9 5 NW 0,0
23.02.2020 23:00:00 6,3 5,1 4 2 9 5 WNW 0,0
23.02.2020 22:00:00 7,6 6,2 4 2 8 4 NW 0,0
23.02.2020 21:00:00 8,5 7,0 4 2 8 4 WNW 0,0
23.02.2020 20:00:00 9,8 6,7 0 0 9 5 N 0,0
23.02.2020 19:00:00 12,1 8,0 4 2 11 6 E -
23.02.2020 18:00:00 13,8 8,2 5 3 11 6 SW 0,0
23.02.2020 17:00:00 16,3 8,0 8 4 18 10 ESE 0,0
23.02.2020 16:00:00 15,6 9,0 11 6 24 13 ESE 0,0
23.02.2020 15:00:00 16,7 8,6 11 6 24 13 ESE 0,0
23.02.2020 14:00:00 15,6 8,8 13 7 29 16 ESE 0,0
23.02.2020 13:00:00 15,5 8,2 13 7 28 15 ESE -
23.02.2020 12:00:00 16,0 7,5 9 5 16 9 SE 0,0
23.02.2020 11:00:00 14,8 6,9 4 2 16 9 N 0,0
23.02.2020 10:00:00 10,3 6,3 4 2 16 9 NW 0,0
23.02.2020 09:00:00 6,0 4,6 8 4 15 8 NW 0,0
23.02.2020 08:00:00 4,4 3,5 5 3 13 7 NW 0,0
23.02.2020 07:00:00 4,0 3,4 8 4 11 6 NNW -
23.02.2020 06:00:00 3,7 2,5 4 2 15 8 W 0,0
23.02.2020 05:00:00 5,4 5,0 8 4 15 8 N 0,0
23.02.2020 04:00:00 4,4 3,7 4 2 11 6 W 0,2
23.02.2020 03:00:00 3,8 3,2 4 2 9 5 SW 0,0
23.02.2020 02:00:00 4,5 3,9 4 2 8 4 WSW 0,0
23.02.2020 01:00:00 4,9 4,0 2 1 8 4 WSW -
23.02.2020 00:00:00 7,2 6,5 4 2 11 6 NNW 0,0
22.02.2020 23:00:00 6,1 5,2 4 2 8 4 SW 0,0
22.02.2020 22:00:00 8,2 7,1 5 3 11 6 NW 0,0
22.02.2020 21:00:00 8,7 7,5 4 2 9 5 NW 0,0
22.02.2020 20:00:00 10,4 8,3 0 0 8 4 N 0,0
22.02.2020 19:00:00 12,1 9,8 4 2 18 10 SSE -
22.02.2020 18:00:00 13,2 9,8 5 3 18 10 SSE 0,0

tt = Température de l'air
td = dewpoint
ff = Vitesse du vent
fx = gusts
dd = Direction du vent
rr = Quantités de précipitations

stations d'obs. à proximité